sensor_id;sensor_type;location;lat;lon;timestamp;temperature;humidity
18412;DHT22;27097;51.738;19.472;2023-07-09T00:02:00;25.30;47.40
18412;DHT22;27097;51.738;19.472;2023-07-09T00:04:27;25.20;48.00
18412;DHT22;27097;51.738;19.472;2023-07-09T00:06:55;25.10;48.00
18412;DHT22;27097;51.738;19.472;2023-07-09T00:09:22;25.00;47.90
18412;DHT22;27097;51.738;19.472;2023-07-09T00:11:49;25.00;47.90
18412;DHT22;27097;51.738;19.472;2023-07-09T00:14:16;25.00;48.50
18412;DHT22;27097;51.738;19.472;2023-07-09T00:16:45;25.00;47.30
18412;DHT22;27097;51.738;19.472;2023-07-09T00:19:15;24.90;48.10
18412;DHT22;27097;51.738;19.472;2023-07-09T00:21:43;25.00;48.70
18412;DHT22;27097;51.738;19.472;2023-07-09T00:24:10;25.00;48.50
18412;DHT22;27097;51.738;19.472;2023-07-09T00:26:38;25.00;48.40
18412;DHT22;27097;51.738;19.472;2023-07-09T00:29:08;25.00;47.40
18412;DHT22;27097;51.738;19.472;2023-07-09T00:31:36;25.00;47.50
18412;DHT22;27097;51.738;19.472;2023-07-09T00:34:08;24.90;47.60
18412;DHT22;27097;51.738;19.472;2023-07-09T00:36:37;24.90;47.20
18412;DHT22;27097;51.738;19.472;2023-07-09T00:39:04;24.80;47.70
18412;DHT22;27097;51.738;19.472;2023-07-09T00:41:33;24.80;48.00
18412;DHT22;27097;51.738;19.472;2023-07-09T00:44:21;24.80;47.60
18412;DHT22;27097;51.738;19.472;2023-07-09T00:47:22;24.70;47.40
18412;DHT22;27097;51.738;19.472;2023-07-09T00:50:00;24.60;48.00
18412;DHT22;27097;51.738;19.472;2023-07-09T00:52:31;24.50;47.80
18412;DHT22;27097;51.738;19.472;2023-07-09T00:55:04;24.40;47.50
18412;DHT22;27097;51.738;19.472;2023-07-09T00:57:34;24.30;47.90
18412;DHT22;27097;51.738;19.472;2023-07-09T01:00:08;24.20;48.80
18412;DHT22;27097;51.738;19.472;2023-07-09T01:02:37;24.20;49.30
18412;DHT22;27097;51.738;19.472;2023-07-09T01:05:05;24.10;49.30
18412;DHT22;27097;51.738;19.472;2023-07-09T01:07:32;24.00;49.80
18412;DHT22;27097;51.738;19.472;2023-07-09T01:10:00;24.00;49.50
18412;DHT22;27097;51.738;19.472;2023-07-09T01:12:27;24.00;49.60
18412;DHT22;27097;51.738;19.472;2023-07-09T01:14:57;23.90;49.30
18412;DHT22;27097;51.738;19.472;2023-07-09T01:17:25;23.80;49.60
18412;DHT22;27097;51.738;19.472;2023-07-09T01:19:54;23.70;49.90
18412;DHT22;27097;51.738;19.472;2023-07-09T01:22:23;23.70;50.00
18412;DHT22;27097;51.738;19.472;2023-07-09T01:24:56;23.70;50.40
18412;DHT22;27097;51.738;19.472;2023-07-09T01:27:28;23.70;50.30
18412;DHT22;27097;51.738;19.472;2023-07-09T01:29:57;23.60;50.20
18412;DHT22;27097;51.738;19.472;2023-07-09T01:32:24;23.50;50.60
18412;DHT22;27097;51.738;19.472;2023-07-09T01:34:53;23.40;50.90
18412;DHT22;27097;51.738;19.472;2023-07-09T01:37:24;23.50;51.00
18412;DHT22;27097;51.738;19.472;2023-07-09T01:39:52;23.60;51.30
18412;DHT22;27097;51.738;19.472;2023-07-09T01:42:21;23.60;50.90
18412;DHT22;27097;51.738;19.472;2023-07-09T01:44:48;23.70;50.70
18412;DHT22;27097;51.738;19.472;2023-07-09T01:47:16;23.70;50.90
18412;DHT22;27097;51.738;19.472;2023-07-09T01:49:43;23.70;50.60
18412;DHT22;27097;51.738;19.472;2023-07-09T01:52:13;23.60;50.90
18412;DHT22;27097;51.738;19.472;2023-07-09T01:54:42;23.60;51.30
18412;DHT22;27097;51.738;19.472;2023-07-09T01:57:16;23.60;51.00
18412;DHT22;27097;51.738;19.472;2023-07-09T01:59:45;23.60;51.20
18412;DHT22;27097;51.738;19.472;2023-07-09T02:02:12;23.50;51.40
18412;DHT22;27097;51.738;19.472;2023-07-09T02:04:45;23.40;51.60
18412;DHT22;27097;51.738;19.472;2023-07-09T02:07:12;23.30;51.90
18412;DHT22;27097;51.738;19.472;2023-07-09T02:09:38;23.30;52.20
18412;DHT22;27097;51.738;19.472;2023-07-09T02:12:08;23.20;52.50
18412;DHT22;27097;51.738;19.472;2023-07-09T02:14:35;23.30;52.40
18412;DHT22;27097;51.738;19.472;2023-07-09T02:17:02;23.30;52.50
18412;DHT22;27097;51.738;19.472;2023-07-09T02:19:32;23.40;52.10
18412;DHT22;27097;51.738;19.472;2023-07-09T02:21:59;23.40;52.30
18412;DHT22;27097;51.738;19.472;2023-07-09T02:24:26;23.40;52.30
18412;DHT22;27097;51.738;19.472;2023-07-09T02:26:53;23.30;52.30
18412;DHT22;27097;51.738;19.472;2023-07-09T02:29:22;23.30;52.50
18412;DHT22;27097;51.738;19.472;2023-07-09T02:31:50;23.30;52.70
18412;DHT22;27097;51.738;19.472;2023-07-09T02:34:17;23.40;52.70
18412;DHT22;27097;51.738;19.472;2023-07-09T02:36:44;23.30;52.70
18412;DHT22;27097;51.738;19.472;2023-07-09T02:39:11;23.30;52.80
18412;DHT22;27097;51.738;19.472;2023-07-09T02:41:39;23.30;52.60
18412;DHT22;27097;51.738;19.472;2023-07-09T02:44:06;23.30;52.90
18412;DHT22;27097;51.738;19.472;2023-07-09T02:46:35;23.20;53.10
18412;DHT22;27097;51.738;19.472;2023-07-09T02:49:04;23.20;53.30
18412;DHT22;27097;51.738;19.472;2023-07-09T02:51:31;23.20;53.40
18412;DHT22;27097;51.738;19.472;2023-07-09T02:54:00;23.20;53.30
18412;DHT22;27097;51.738;19.472;2023-07-09T02:56:27;23.10;53.40
18412;DHT22;27097;51.738;19.472;2023-07-09T02:58:55;23.10;53.40
18412;DHT22;27097;51.738;19.472;2023-07-09T03:01:21;23.00;53.60
18412;DHT22;27097;51.738;19.472;2023-07-09T03:03:52;22.90;53.80
18412;DHT22;27097;51.738;19.472;2023-07-09T03:06:20;22.90;53.90
18412;DHT22;27097;51.738;19.472;2023-07-09T03:08:47;22.90;54.00
18412;DHT22;27097;51.738;19.472;2023-07-09T03:11:15;22.90;54.40
18412;DHT22;27097;51.738;19.472;2023-07-09T03:13:42;23.00;53.70
18412;DHT22;27097;51.738;19.472;2023-07-09T03:16:09;22.90;53.80
18412;DHT22;27097;51.738;19.472;2023-07-09T03:18:36;22.90;54.30
18412;DHT22;27097;51.738;19.472;2023-07-09T03:21:05;22.90;54.20
18412;DHT22;27097;51.738;19.472;2023-07-09T03:23:31;22.90;54.50
18412;DHT22;27097;51.738;19.472;2023-07-09T03:26:04;22.90;54.50
18412;DHT22;27097;51.738;19.472;2023-07-09T03:28:32;22.90;54.50
18412;DHT22;27097;51.738;19.472;2023-07-09T03:30:59;23.00;53.90
18412;DHT22;27097;51.738;19.472;2023-07-09T03:33:26;23.00;54.10
18412;DHT22;27097;51.738;19.472;2023-07-09T03:35:53;23.00;54.00
18412;DHT22;27097;51.738;19.472;2023-07-09T03:38:21;23.00;54.30
18412;DHT22;27097;51.738;19.472;2023-07-09T03:40:50;23.10;54.30
18412;DHT22;27097;51.738;19.472;2023-07-09T03:43:17;23.20;54.10
18412;DHT22;27097;51.738;19.472;2023-07-09T03:45:44;23.20;53.70
18412;DHT22;27097;51.738;19.472;2023-07-09T03:48:12;23.30;53.80
18412;DHT22;27097;51.738;19.472;2023-07-09T03:50:39;23.40;53.70
18412;DHT22;27097;51.738;19.472;2023-07-09T03:53:07;23.40;53.80
18412;DHT22;27097;51.738;19.472;2023-07-09T03:55:35;23.50;53.50
18412;DHT22;27097;51.738;19.472;2023-07-09T03:58:03;23.60;53.50
18412;DHT22;27097;51.738;19.472;2023-07-09T04:00:31;23.70;53.10
18412;DHT22;27097;51.738;19.472;2023-07-09T04:02:58;23.70;53.30
18412;DHT22;27097;51.738;19.472;2023-07-09T04:05:25;23.80;53.00
18412;DHT22;27097;51.738;19.472;2023-07-09T04:07:52;23.80;52.70
18412;DHT22;27097;51.738;19.472;2023-07-09T04:10:19;23.90;52.80
18412;DHT22;27097;51.738;19.472;2023-07-09T04:12:47;23.90;52.70
18412;DHT22;27097;51.738;19.472;2023-07-09T04:15:14;24.00;52.60
18412;DHT22;27097;51.738;19.472;2023-07-09T04:17:41;24.10;52.50
18412;DHT22;27097;51.738;19.472;2023-07-09T04:20:09;24.10;52.40
18412;DHT22;27097;51.738;19.472;2023-07-09T04:22:37;24.20;52.20
18412;DHT22;27097;51.738;19.472;2023-07-09T04:25:06;24.20;52.10
18412;DHT22;27097;51.738;19.472;2023-07-09T04:27:35;24.20;52.30
18412;DHT22;27097;51.738;19.472;2023-07-09T04:30:04;24.20;52.50
18412;DHT22;27097;51.738;19.472;2023-07-09T04:32:31;24.30;52.30
18412;DHT22;27097;51.738;19.472;2023-07-09T04:34:58;24.30;52.00
18412;DHT22;27097;51.738;19.472;2023-07-09T04:37:25;24.40;52.10
18412;DHT22;27097;51.738;19.472;2023-07-09T04:39:52;24.40;52.10
18412;DHT22;27097;51.738;19.472;2023-07-09T04:42:19;24.50;52.00
18412;DHT22;27097;51.738;19.472;2023-07-09T04:44:46;24.50;51.80
18412;DHT22;27097;51.738;19.472;2023-07-09T04:47:14;24.60;51.80
18412;DHT22;27097;51.738;19.472;2023-07-09T04:49:41;24.60;51.70
18412;DHT22;27097;51.738;19.472;2023-07-09T04:52:09;24.70;51.50
18412;DHT22;27097;51.738;19.472;2023-07-09T04:54:39;24.70;51.40
18412;DHT22;27097;51.738;19.472;2023-07-09T04:57:09;24.70;51.00
18412;DHT22;27097;51.738;19.472;2023-07-09T04:59:36;24.80;51.10
18412;DHT22;27097;51.738;19.472;2023-07-09T05:02:04;24.90;50.90
18412;DHT22;27097;51.738;19.472;2023-07-09T05:04:32;24.90;50.70
18412;DHT22;27097;51.738;19.472;2023-07-09T05:06:59;24.90;50.70
18412;DHT22;27097;51.738;19.472;2023-07-09T05:09:26;25.00;50.60
18412;DHT22;27097;51.738;19.472;2023-07-09T05:11:53;25.00;50.60
18412;DHT22;27097;51.738;19.472;2023-07-09T05:14:20;25.10;50.90
18412;DHT22;27097;51.738;19.472;2023-07-09T05:16:47;25.10;50.70
18412;DHT22;27097;51.738;19.472;2023-07-09T05:19:16;25.20;50.40
18412;DHT22;27097;51.738;19.472;2023-07-09T05:21:44;25.20;50.20
18412;DHT22;27097;51.738;19.472;2023-07-09T05:24:11;25.30;50.60
18412;DHT22;27097;51.738;19.472;2023-07-09T05:26:38;25.30;50.50
18412;DHT22;27097;51.738;19.472;2023-07-09T05:29:05;25.30;50.30
18412;DHT22;27097;51.738;19.472;2023-07-09T05:31:32;25.40;50.00
18412;DHT22;27097;51.738;19.472;2023-07-09T05:33:59;25.40;49.60
18412;DHT22;27097;51.738;19.472;2023-07-09T05:36:27;25.50;49.60
18412;DHT22;27097;51.738;19.472;2023-07-09T05:38:56;25.50;50.50
18412;DHT22;27097;51.738;19.472;2023-07-09T05:41:23;25.50;49.60
18412;DHT22;27097;51.738;19.472;2023-07-09T05:43:50;25.50;50.40
18412;DHT22;27097;51.738;19.472;2023-07-09T05:46:18;25.50;50.00
18412;DHT22;27097;51.738;19.472;2023-07-09T05:48:45;25.50;49.90
18412;DHT22;27097;51.738;19.472;2023-07-09T05:51:12;25.60;49.60
18412;DHT22;27097;51.738;19.472;2023-07-09T05:53:39;25.60;50.60
18412;DHT22;27097;51.738;19.472;2023-07-09T05:56:07;25.60;50.30
18412;DHT22;27097;51.738;19.472;2023-07-09T05:58:34;25.60;50.40
18412;DHT22;27097;51.738;19.472;2023-07-09T06:01:01;25.70;50.10
18412;DHT22;27097;51.738;19.472;2023-07-09T06:03:29;25.60;50.50
18412;DHT22;27097;51.738;19.472;2023-07-09T06:05:56;25.70;50.40
18412;DHT22;27097;51.738;19.472;2023-07-09T06:08:24;25.70;50.30
18412;DHT22;27097;51.738;19.472;2023-07-09T06:10:56;25.70;50.00
18412;DHT22;27097;51.738;19.472;2023-07-09T06:13:26;25.70;50.20
18412;DHT22;27097;51.738;19.472;2023-07-09T06:15:57;25.70;50.20
18412;DHT22;27097;51.738;19.472;2023-07-09T06:18:25;25.70;50.20
18412;DHT22;27097;51.738;19.472;2023-07-09T06:20:56;25.70;50.10
18412;DHT22;27097;51.738;19.472;2023-07-09T06:23:23;25.70;49.90
18412;DHT22;27097;51.738;19.472;2023-07-09T06:25:50;25.80;50.10
18412;DHT22;27097;51.738;19.472;2023-07-09T06:28:20;25.80;49.40
18412;DHT22;27097;51.738;19.472;2023-07-09T06:30:48;25.80;49.70
18412;DHT22;27097;51.738;19.472;2023-07-09T06:33:17;25.80;49.70
18412;DHT22;27097;51.738;19.472;2023-07-09T06:35:50;25.90;49.90
18412;DHT22;27097;51.738;19.472;2023-07-09T06:38:18;25.90;49.80
18412;DHT22;27097;51.738;19.472;2023-07-09T06:40:45;25.90;49.90
18412;DHT22;27097;51.738;19.472;2023-07-09T06:43:12;26.00;50.10
18412;DHT22;27097;51.738;19.472;2023-07-09T06:45:49;26.00;50.20
18412;DHT22;27097;51.738;19.472;2023-07-09T06:48:16;26.00;50.40
18412;DHT22;27097;51.738;19.472;2023-07-09T06:50:43;26.00;50.60
18412;DHT22;27097;51.738;19.472;2023-07-09T06:53:10;26.00;50.80
18412;DHT22;27097;51.738;19.472;2023-07-09T06:55:37;26.00;50.60
18412;DHT22;27097;51.738;19.472;2023-07-09T06:58:04;26.10;50.50
18412;DHT22;27097;51.738;19.472;2023-07-09T07:00:31;26.10;50.30
18412;DHT22;27097;51.738;19.472;2023-07-09T07:02:59;26.10;50.50
18412;DHT22;27097;51.738;19.472;2023-07-09T07:05:26;26.10;50.50
18412;DHT22;27097;51.738;19.472;2023-07-09T07:07:53;26.10;50.40
18412;DHT22;27097;51.738;19.472;2023-07-09T07:10:20;26.10;50.50
18412;DHT22;27097;51.738;19.472;2023-07-09T07:12:48;26.10;50.30
18412;DHT22;27097;51.738;19.472;2023-07-09T07:15:16;26.20;50.50
18412;DHT22;27097;51.738;19.472;2023-07-09T07:17:43;26.20;50.80
18412;DHT22;27097;51.738;19.472;2023-07-09T07:20:13;26.20;50.70
18412;DHT22;27097;51.738;19.472;2023-07-09T07:22:40;26.20;50.90
18412;DHT22;27097;51.738;19.472;2023-07-09T07:25:08;26.20;51.60
18412;DHT22;27097;51.738;19.472;2023-07-09T07:27:36;26.20;50.60
18412;DHT22;27097;51.738;19.472;2023-07-09T07:30:04;26.30;50.90
18412;DHT22;27097;51.738;19.472;2023-07-09T07:32:32;26.30;50.80
18412;DHT22;27097;51.738;19.472;2023-07-09T07:34:59;26.30;50.70
18412;DHT22;27097;51.738;19.472;2023-07-09T07:37:27;26.30;51.30
18412;DHT22;27097;51.738;19.472;2023-07-09T07:39:54;26.30;51.30
18412;DHT22;27097;51.738;19.472;2023-07-09T07:42:22;26.30;51.90
18412;DHT22;27097;51.738;19.472;2023-07-09T07:44:49;26.40;51.70
18412;DHT22;27097;51.738;19.472;2023-07-09T07:47:17;26.40;51.90
18412;DHT22;27097;51.738;19.472;2023-07-09T07:49:44;26.40;52.30
18412;DHT22;27097;51.738;19.472;2023-07-09T07:52:11;26.40;52.40
18412;DHT22;27097;51.738;19.472;2023-07-09T07:54:40;26.50;52.20
18412;DHT22;27097;51.738;19.472;2023-07-09T07:57:07;26.50;51.50
18412;DHT22;27097;51.738;19.472;2023-07-09T07:59:34;26.50;52.00
18412;DHT22;27097;51.738;19.472;2023-07-09T08:02:01;26.50;52.40
18412;DHT22;27097;51.738;19.472;2023-07-09T08:04:28;26.50;52.50
18412;DHT22;27097;51.738;19.472;2023-07-09T08:06:55;26.50;52.70
18412;DHT22;27097;51.738;19.472;2023-07-09T08:09:22;26.60;52.40
18412;DHT22;27097;51.738;19.472;2023-07-09T08:11:51;26.60;52.30
18412;DHT22;27097;51.738;19.472;2023-07-09T08:14:17;26.60;52.30
18412;DHT22;27097;51.738;19.472;2023-07-09T08:16:44;26.60;52.10
18412;DHT22;27097;51.738;19.472;2023-07-09T08:19:11;26.60;52.10
18412;DHT22;27097;51.738;19.472;2023-07-09T08:21:38;26.60;51.90
18412;DHT22;27097;51.738;19.472;2023-07-09T08:24:05;26.70;51.60
18412;DHT22;27097;51.738;19.472;2023-07-09T08:26:32;26.70;51.40
18412;DHT22;27097;51.738;19.472;2023-07-09T08:29:01;26.70;51.00
18412;DHT22;27097;51.738;19.472;2023-07-09T08:31:28;26.70;50.90
18412;DHT22;27097;51.738;19.472;2023-07-09T08:33:54;26.70;50.90
18412;DHT22;27097;51.738;19.472;2023-07-09T08:36:21;26.80;50.80
18412;DHT22;27097;51.738;19.472;2023-07-09T08:38:48;26.80;50.40
18412;DHT22;27097;51.738;19.472;2023-07-09T08:41:25;26.80;50.40
18412;DHT22;27097;51.738;19.472;2023-07-09T08:43:59;26.90;50.50
18412;DHT22;27097;51.738;19.472;2023-07-09T08:46:37;26.90;50.20
18412;DHT22;27097;51.738;19.472;2023-07-09T08:49:14;26.90;50.40
18412;DHT22;27097;51.738;19.472;2023-07-09T08:51:43;27.00;50.80
18412;DHT22;27097;51.738;19.472;2023-07-09T08:54:14;27.00;50.90
18412;DHT22;27097;51.738;19.472;2023-07-09T08:56:42;27.10;51.40
18412;DHT22;27097;51.738;19.472;2023-07-09T08:59:12;27.10;51.00
18412;DHT22;27097;51.738;19.472;2023-07-09T09:01:49;27.10;50.70
18412;DHT22;27097;51.738;19.472;2023-07-09T09:04:20;27.20;50.80
18412;DHT22;27097;51.738;19.472;2023-07-09T09:06:53;27.20;50.30
18412;DHT22;27097;51.738;19.472;2023-07-09T09:09:28;27.20;50.60
18412;DHT22;27097;51.738;19.472;2023-07-09T09:12:03;27.30;51.30
18412;DHT22;27097;51.738;19.472;2023-07-09T09:14:37;27.30;50.50
18412;DHT22;27097;51.738;19.472;2023-07-09T09:17:12;27.30;50.50
18412;DHT22;27097;51.738;19.472;2023-07-09T09:19:45;27.30;50.30
18412;DHT22;27097;51.738;19.472;2023-07-09T09:22:16;27.40;50.20
18412;DHT22;27097;51.738;19.472;2023-07-09T09:24:55;27.40;50.40
18412;DHT22;27097;51.738;19.472;2023-07-09T09:27:23;27.40;50.20
18412;DHT22;27097;51.738;19.472;2023-07-09T09:29:50;27.50;50.50
18412;DHT22;27097;51.738;19.472;2023-07-09T09:32:22;27.50;49.70
18412;DHT22;27097;51.738;19.472;2023-07-09T09:34:50;27.50;49.60
18412;DHT22;27097;51.738;19.472;2023-07-09T09:37:26;27.50;49.20
18412;DHT22;27097;51.738;19.472;2023-07-09T09:39:54;27.50;49.00
18412;DHT22;27097;51.738;19.472;2023-07-09T09:42:23;27.50;49.20
18412;DHT22;27097;51.738;19.472;2023-07-09T09:44:53;27.60;49.00
18412;DHT22;27097;51.738;19.472;2023-07-09T09:47:25;27.60;48.60
18412;DHT22;27097;51.738;19.472;2023-07-09T09:49:53;27.60;48.60
18412;DHT22;27097;51.738;19.472;2023-07-09T09:52:23;27.60;48.30
18412;DHT22;27097;51.738;19.472;2023-07-09T09:54:55;27.60;48.10
18412;DHT22;27097;51.738;19.472;2023-07-09T09:57:24;27.70;48.00
18412;DHT22;27097;51.738;19.472;2023-07-09T09:59:54;27.80;47.60
18412;DHT22;27097;51.738;19.472;2023-07-09T10:02:24;27.80;47.70
18412;DHT22;27097;51.738;19.472;2023-07-09T10:04:51;27.90;47.70
18412;DHT22;27097;51.738;19.472;2023-07-09T10:07:21;28.00;47.70
18412;DHT22;27097;51.738;19.472;2023-07-09T10:09:51;28.10;47.50
18412;DHT22;27097;51.738;19.472;2023-07-09T10:12:36;28.20;47.00
18412;DHT22;27097;51.738;19.472;2023-07-09T10:15:27;28.30;46.50
18412;DHT22;27097;51.738;19.472;2023-07-09T10:18:02;28.30;46.20
18412;DHT22;27097;51.738;19.472;2023-07-09T10:20:34;28.30;46.50
18412;DHT22;27097;51.738;19.472;2023-07-09T10:23:09;28.20;46.40
18412;DHT22;27097;51.738;19.472;2023-07-09T10:25:45;28.20;46.50
18412;DHT22;27097;51.738;19.472;2023-07-09T10:31:19;28.10;46.30
18412;DHT22;27097;51.738;19.472;2023-07-09T10:33:56;28.10;46.50
18412;DHT22;27097;51.738;19.472;2023-07-09T10:36:41;28.10;46.20
18412;DHT22;27097;51.738;19.472;2023-07-09T10:39:14;28.10;45.70
18412;DHT22;27097;51.738;19.472;2023-07-09T10:41:45;28.10;45.50
18412;DHT22;27097;51.738;19.472;2023-07-09T10:44:16;28.20;44.80
18412;DHT22;27097;51.738;19.472;2023-07-09T10:46:48;28.20;44.80
18412;DHT22;27097;51.738;19.472;2023-07-09T10:49:18;28.20;44.90
18412;DHT22;27097;51.738;19.472;2023-07-09T10:51:50;28.30;44.10
18412;DHT22;27097;51.738;19.472;2023-07-09T10:54:23;28.30;44.00
18412;DHT22;27097;51.738;19.472;2023-07-09T10:56:57;28.40;43.90
18412;DHT22;27097;51.738;19.472;2023-07-09T10:59:29;28.50;43.80
18412;DHT22;27097;51.738;19.472;2023-07-09T11:02:01;28.60;43.50
18412;DHT22;27097;51.738;19.472;2023-07-09T11:04:35;28.60;43.30
18412;DHT22;27097;51.738;19.472;2023-07-09T11:07:06;28.70;42.70
18412;DHT22;27097;51.738;19.472;2023-07-09T11:09:38;28.70;42.70
18412;DHT22;27097;51.738;19.472;2023-07-09T11:12:10;28.70;42.10
18412;DHT22;27097;51.738;19.472;2023-07-09T11:14:40;28.70;41.60
18412;DHT22;27097;51.738;19.472;2023-07-09T11:17:13;28.70;41.70
18412;DHT22;27097;51.738;19.472;2023-07-09T11:19:46;28.70;42.30
18412;DHT22;27097;51.738;19.472;2023-07-09T11:22:16;28.70;41.50
18412;DHT22;27097;51.738;19.472;2023-07-09T11:24:48;28.70;41.40
18412;DHT22;27097;51.738;19.472;2023-07-09T11:27:22;28.70;41.40
18412;DHT22;27097;51.738;19.472;2023-07-09T11:29:57;28.70;41.30
18412;DHT22;27097;51.738;19.472;2023-07-09T11:32:25;28.70;41.30
18412;DHT22;27097;51.738;19.472;2023-07-09T11:34:54;28.60;41.40
18412;DHT22;27097;51.738;19.472;2023-07-09T11:37:25;28.60;41.20
18412;DHT22;27097;51.738;19.472;2023-07-09T11:39:52;28.60;41.50
18412;DHT22;27097;51.738;19.472;2023-07-09T11:42:28;28.50;41.30
18412;DHT22;27097;51.738;19.472;2023-07-09T11:45:01;28.40;41.20
18412;DHT22;27097;51.738;19.472;2023-07-09T11:47:33;28.30;41.40
18412;DHT22;27097;51.738;19.472;2023-07-09T11:50:05;28.30;41.60
18412;DHT22;27097;51.738;19.472;2023-07-09T11:52:41;28.20;41.70
18412;DHT22;27097;51.738;19.472;2023-07-09T11:55:26;28.10;41.40
18412;DHT22;27097;51.738;19.472;2023-07-09T11:57:53;28.10;41.70
18412;DHT22;27097;51.738;19.472;2023-07-09T12:00:20;28.00;41.80
18412;DHT22;27097;51.738;19.472;2023-07-09T12:02:48;27.90;41.90
18412;DHT22;27097;51.738;19.472;2023-07-09T12:05:21;27.90;42.20
18412;DHT22;27097;51.738;19.472;2023-07-09T12:07:51;27.80;42.40
18412;DHT22;27097;51.738;19.472;2023-07-09T12:10:20;27.80;42.50
18412;DHT22;27097;51.738;19.472;2023-07-09T12:12:48;27.70;42.20
18412;DHT22;27097;51.738;19.472;2023-07-09T12:15:18;27.70;42.40
18412;DHT22;27097;51.738;19.472;2023-07-09T12:17:56;27.70;42.50
18412;DHT22;27097;51.738;19.472;2023-07-09T12:20:24;27.60;42.20
18412;DHT22;27097;51.738;19.472;2023-07-09T12:22:51;27.60;42.40
18412;DHT22;27097;51.738;19.472;2023-07-09T12:25:22;27.60;42.30
18412;DHT22;27097;51.738;19.472;2023-07-09T12:27:49;27.60;42.30
18412;DHT22;27097;51.738;19.472;2023-07-09T12:30:16;27.60;42.30
18412;DHT22;27097;51.738;19.472;2023-07-09T12:32:43;27.60;41.70
18412;DHT22;27097;51.738;19.472;2023-07-09T12:35:13;27.60;42.00
18412;DHT22;27097;51.738;19.472;2023-07-09T12:37:42;27.60;41.90
18412;DHT22;27097;51.738;19.472;2023-07-09T12:40:16;27.60;42.60
18412;DHT22;27097;51.738;19.472;2023-07-09T12:42:43;27.60;42.10
18412;DHT22;27097;51.738;19.472;2023-07-09T12:45:15;27.60;42.30
18412;DHT22;27097;51.738;19.472;2023-07-09T12:47:43;27.50;42.20
18412;DHT22;27097;51.738;19.472;2023-07-09T12:50:19;27.50;42.00
18412;DHT22;27097;51.738;19.472;2023-07-09T12:52:48;27.50;42.20
18412;DHT22;27097;51.738;19.472;2023-07-09T12:55:20;27.50;42.20
18412;DHT22;27097;51.738;19.472;2023-07-09T12:57:47;27.50;42.20
18412;DHT22;27097;51.738;19.472;2023-07-09T13:00:14;27.50;42.40
18412;DHT22;27097;51.738;19.472;2023-07-09T13:02:43;27.50;42.20
18412;DHT22;27097;51.738;19.472;2023-07-09T13:05:18;27.50;42.50
18412;DHT22;27097;51.738;19.472;2023-07-09T13:07:49;27.50;42.40
18412;DHT22;27097;51.738;19.472;2023-07-09T13:10:19;27.40;42.20
18412;DHT22;27097;51.738;19.472;2023-07-09T13:12:50;27.40;42.10
18412;DHT22;27097;51.738;19.472;2023-07-09T13:15:29;27.40;42.20
18412;DHT22;27097;51.738;19.472;2023-07-09T13:17:58;27.40;42.20
18412;DHT22;27097;51.738;19.472;2023-07-09T13:20:26;27.40;42.20
18412;DHT22;27097;51.738;19.472;2023-07-09T13:22:54;27.40;42.30
18412;DHT22;27097;51.738;19.472;2023-07-09T13:25:21;27.40;41.60
18412;DHT22;27097;51.738;19.472;2023-07-09T13:27:48;27.40;41.60
18412;DHT22;27097;51.738;19.472;2023-07-09T13:30:15;27.40;41.30
18412;DHT22;27097;51.738;19.472;2023-07-09T13:32:44;27.40;40.80
18412;DHT22;27097;51.738;19.472;2023-07-09T13:35:15;27.40;41.00
18412;DHT22;27097;51.738;19.472;2023-07-09T13:37:42;27.40;40.60
18412;DHT22;27097;51.738;19.472;2023-07-09T13:40:13;27.40;40.60
18412;DHT22;27097;51.738;19.472;2023-07-09T13:42:41;27.40;40.40
18412;DHT22;27097;51.738;19.472;2023-07-09T13:45:20;27.40;40.20
18412;DHT22;27097;51.738;19.472;2023-07-09T13:47:48;27.40;40.40
18412;DHT22;27097;51.738;19.472;2023-07-09T13:50:16;27.40;39.90
18412;DHT22;27097;51.738;19.472;2023-07-09T13:52:43;27.40;40.00
18412;DHT22;27097;51.738;19.472;2023-07-09T13:55:19;27.40;39.70
18412;DHT22;27097;51.738;19.472;2023-07-09T13:57:47;27.40;40.00
18412;DHT22;27097;51.738;19.472;2023-07-09T14:00:14;27.40;39.80
18412;DHT22;27097;51.738;19.472;2023-07-09T14:02:42;27.40;40.00
18412;DHT22;27097;51.738;19.472;2023-07-09T14:05:11;27.40;40.00
18412;DHT22;27097;51.738;19.472;2023-07-09T14:07:40;27.40;39.30
18412;DHT22;27097;51.738;19.472;2023-07-09T14:10:11;27.40;39.30
18412;DHT22;27097;51.738;19.472;2023-07-09T14:12:44;27.40;39.40
18412;DHT22;27097;51.738;19.472;2023-07-09T14:15:14;27.40;38.90
18412;DHT22;27097;51.738;19.472;2023-07-09T14:17:42;27.40;38.80
18412;DHT22;27097;51.738;19.472;2023-07-09T14:20:11;27.40;38.80
18412;DHT22;27097;51.738;19.472;2023-07-09T14:22:39;27.40;38.70
18412;DHT22;27097;51.738;19.472;2023-07-09T14:25:06;27.40;38.50
18412;DHT22;27097;51.738;19.472;2023-07-09T14:27:33;27.40;38.40
18412;DHT22;27097;51.738;19.472;2023-07-09T14:30:01;27.40;38.40
18412;DHT22;27097;51.738;19.472;2023-07-09T14:32:33;27.40;38.40
18412;DHT22;27097;51.738;19.472;2023-07-09T14:35:01;27.40;38.20
18412;DHT22;27097;51.738;19.472;2023-07-09T14:37:28;27.40;38.20
18412;DHT22;27097;51.738;19.472;2023-07-09T14:39:55;27.40;38.20
18412;DHT22;27097;51.738;19.472;2023-07-09T14:42:22;27.40;37.80
18412;DHT22;27097;51.738;19.472;2023-07-09T14:44:49;27.40;38.20
18412;DHT22;27097;51.738;19.472;2023-07-09T14:47:19;27.40;38.40
18412;DHT22;27097;51.738;19.472;2023-07-09T14:49:46;27.40;38.70
18412;DHT22;27097;51.738;19.472;2023-07-09T14:52:15;27.30;38.70
18412;DHT22;27097;51.738;19.472;2023-07-09T14:54:44;27.30;38.90
18412;DHT22;27097;51.738;19.472;2023-07-09T14:57:18;27.30;38.50
18412;DHT22;27097;51.738;19.472;2023-07-09T14:59:46;27.30;38.60
18412;DHT22;27097;51.738;19.472;2023-07-09T15:02:22;27.30;38.30
18412;DHT22;27097;51.738;19.472;2023-07-09T15:04:49;27.30;37.80
18412;DHT22;27097;51.738;19.472;2023-07-09T15:07:16;27.30;38.20
18412;DHT22;27097;51.738;19.472;2023-07-09T15:09:43;27.30;38.30
18412;DHT22;27097;51.738;19.472;2023-07-09T15:12:17;27.30;38.70
18412;DHT22;27097;51.738;19.472;2023-07-09T15:14:44;27.30;38.50
18412;DHT22;27097;51.738;19.472;2023-07-09T15:17:11;27.30;38.50
18412;DHT22;27097;51.738;19.472;2023-07-09T15:19:40;27.30;38.20
18412;DHT22;27097;51.738;19.472;2023-07-09T15:22:17;27.30;38.30
18412;DHT22;27097;51.738;19.472;2023-07-09T15:24:44;27.20;38.40
18412;DHT22;27097;51.738;19.472;2023-07-09T15:27:13;27.20;38.10
18412;DHT22;27097;51.738;19.472;2023-07-09T15:29:40;27.20;38.30
18412;DHT22;27097;51.738;19.472;2023-07-09T15:32:07;27.20;38.30